createdAt,value
2019-03-04T00:01:21.166Z,70.30
2019-03-04T00:03:53.797Z,70.20
2019-03-04T00:06:23.779Z,70.10
2019-03-04T00:08:54.142Z,69.60
2019-03-04T00:11:24.459Z,69.00
2019-03-04T00:13:54.749Z,67.30
2019-03-04T00:16:27.838Z,66.80
2019-03-04T00:18:58.161Z,66.30
2019-03-04T00:21:28.518Z,65.70
2019-03-04T00:23:58.802Z,65.30
2019-03-04T00:26:29.260Z,64.80
2019-03-04T00:28:59.581Z,64.70
2019-03-04T00:31:29.925Z,64.50
2019-03-04T00:34:00.218Z,64.10
2019-03-04T00:36:30.560Z,63.80
2019-03-04T00:39:00.865Z,63.30
2019-03-04T00:41:32.853Z,62.20
2019-03-04T00:44:03.141Z,60.90
2019-03-04T00:46:33.496Z,59.60
2019-03-04T00:49:03.890Z,58.80
2019-03-04T00:51:34.215Z,57.60
2019-03-04T00:54:04.608Z,56.50
2019-03-04T00:56:35.001Z,55.80
2019-03-04T00:59:05.338Z,54.90
2019-03-04T01:01:35.668Z,53.90
2019-03-04T01:04:05.970Z,52.90
2019-03-04T01:06:36.415Z,51.90
2019-03-04T01:09:09.637Z,50.70
2019-03-04T01:11:39.962Z,50.50
2019-03-04T01:14:10.291Z,49.60
2019-03-04T01:16:40.657Z,48.70
2019-03-04T01:19:11.018Z,48.30
2019-03-04T01:21:41.374Z,47.70
2019-03-04T01:24:11.713Z,47.10
2019-03-04T01:26:42.028Z,47.00
2019-03-04T01:29:12.322Z,46.70
2019-03-04T01:31:43.649Z,46.80
2019-03-04T01:34:14.123Z,47.40
2019-03-04T01:36:44.535Z,48.10
2019-03-04T01:39:14.845Z,48.10
2019-03-04T01:41:45.175Z,48.40
2019-03-04T01:44:15.468Z,48.60
2019-03-04T01:46:45.803Z,48.80
2019-03-04T01:49:16.082Z,49.10
2019-03-04T01:51:46.430Z,49.00
2019-03-04T01:54:16.767Z,48.40
2019-03-04T01:56:47.085Z,48.30
2019-03-04T01:59:17.407Z,48.20
2019-03-04T02:01:48.021Z,48.00
2019-03-04T02:04:18.309Z,47.80
2019-03-04T02:06:48.737Z,47.60
2019-03-04T02:09:19.915Z,47.90
2019-03-04T02:11:50.441Z,48.10
2019-03-04T02:14:20.738Z,48.60
2019-03-04T02:16:51.603Z,48.70
2019-03-04T02:19:22.149Z,48.80
2019-03-04T02:21:52.775Z,49.30
2019-03-04T02:24:25.249Z,49.10
2019-03-04T02:26:57.508Z,49.00
2019-03-04T02:29:27.826Z,48.90
2019-03-04T02:31:58.311Z,48.60
2019-03-04T02:34:28.697Z,48.60
2019-03-04T02:36:59.098Z,49.10
2019-03-04T02:39:29.447Z,49.50
2019-03-04T02:41:59.813Z,49.70
2019-03-04T02:44:30.264Z,49.50
2019-03-04T02:47:00.626Z,49.70
2019-03-04T02:49:31.428Z,49.40
2019-03-04T02:52:01.757Z,49.60
2019-03-04T02:54:32.077Z,49.30
2019-03-04T02:57:02.402Z,49.30
2019-03-04T02:59:32.870Z,49.20
2019-03-04T03:02:03.198Z,49.20
2019-03-04T03:04:33.578Z,49.30
2019-03-04T03:07:03.891Z,49.20
2019-03-04T03:09:34.197Z,48.90
2019-03-04T03:12:04.541Z,48.70
2019-03-04T03:14:34.832Z,48.60
2019-03-04T03:17:05.174Z,48.70
2019-03-04T03:19:35.462Z,48.30
2019-03-04T03:22:05.811Z,47.60
2019-03-04T03:24:36.172Z,47.00
2019-03-04T03:27:06.556Z,46.90
2019-03-04T03:29:36.876Z,46.80
2019-03-04T03:32:07.258Z,46.90
2019-03-04T03:34:37.692Z,46.60
2019-03-04T03:37:08.092Z,45.80
2019-03-04T03:39:38.418Z,45.40
2019-03-04T03:42:08.754Z,45.30
2019-03-04T03:44:39.052Z,44.50
2019-03-04T03:47:09.393Z,44.10
2019-03-04T03:49:39.691Z,43.70
2019-03-04T03:52:10.043Z,43.40
2019-03-04T03:54:40.350Z,43.50
2019-03-04T03:57:10.699Z,43.40
2019-03-04T03:59:40.978Z,43.10
2019-03-04T04:02:11.318Z,43.30
2019-03-04T04:04:41.611Z,43.40
2019-03-04T04:07:11.935Z,42.70
2019-03-04T04:09:42.230Z,42.40
2019-03-04T04:12:12.586Z,43.00
2019-03-04T04:14:43.904Z,42.60
2019-03-04T04:17:14.352Z,42.30
2019-03-04T04:19:44.652Z,41.80
2019-03-04T04:22:14.982Z,41.70
2019-03-04T04:24:45.304Z,41.40
2019-03-04T04:27:15.649Z,41.60
2019-03-04T04:29:45.968Z,41.80
2019-03-04T04:32:16.299Z,41.40
2019-03-04T04:34:46.683Z,41.10
2019-03-04T04:37:17.020Z,41.20
2019-03-04T04:39:47.317Z,40.40
2019-03-04T04:42:17.636Z,40.50
2019-03-04T04:44:47.982Z,39.90
2019-03-04T04:47:18.338Z,39.50
2019-03-04T04:49:48.649Z,39.40
2019-03-04T04:52:18.978Z,38.60
2019-03-04T04:54:49.306Z,38.70
2019-03-04T04:57:19.657Z,40.10
2019-03-04T04:59:50.008Z,41.00
2019-03-04T05:02:20.388Z,41.70
2019-03-04T05:04:51.096Z,42.10
2019-03-04T05:07:21.607Z,42.30
2019-03-04T05:09:52.309Z,42.00
2019-03-04T05:12:22.744Z,41.70
2019-03-04T05:14:54.492Z,41.90
2019-03-04T05:17:24.924Z,42.10
2019-03-04T05:19:55.374Z,41.60
2019-03-04T05:22:25.728Z,41.60
2019-03-04T05:24:56.442Z,41.60
2019-03-04T05:27:26.774Z,41.00
2019-03-04T05:29:57.168Z,40.90
2019-03-04T05:32:27.742Z,40.90
2019-03-04T05:34:58.087Z,40.10
2019-03-04T05:37:28.447Z,40.40
2019-03-04T05:39:58.749Z,40.40
2019-03-04T05:42:29.190Z,40.00
2019-03-04T05:44:59.502Z,40.00
2019-03-04T05:47:30.766Z,40.20
2019-03-04T05:50:01.113Z,40.20
2019-03-04T05:52:31.556Z,40.40
2019-03-04T05:55:01.856Z,40.40
2019-03-04T05:57:32.263Z,40.60
2019-03-04T06:00:02.793Z,40.70
2019-03-04T06:02:33.184Z,40.30
2019-03-04T06:05:03.487Z,39.90
2019-03-04T06:07:45.929Z,39.60
2019-03-04T06:10:16.289Z,39.30
2019-03-04T06:12:46.641Z,38.60
2019-03-04T06:15:18.555Z,39.30
2019-03-04T06:17:48.890Z,39.10
2019-03-04T06:20:19.571Z,39.10
2019-03-04T06:22:49.934Z,39.40
2019-03-04T06:25:22.611Z,39.10
2019-03-04T06:27:52.951Z,39.10
2019-03-04T06:30:24.293Z,39.10
2019-03-04T06:32:54.610Z,39.30
2019-03-04T06:35:24.893Z,39.40
2019-03-04T06:37:55.300Z,39.40
2019-03-04T06:40:25.690Z,39.70
2019-03-04T06:42:56.012Z,40.10
2019-03-04T06:45:26.356Z,40.80
2019-03-04T06:47:56.680Z,41.10
2019-03-04T06:50:49.674Z,41.50
2019-03-04T06:53:36.088Z,41.70
2019-03-04T06:56:25.110Z,42.00
2019-03-04T06:59:03.503Z,42.50
2019-03-04T07:01:38.367Z,42.60
2019-03-04T07:04:42.412Z,43.00
2019-03-04T07:07:12.737Z,43.00
2019-03-04T07:09:43.049Z,43.40
2019-03-04T07:12:13.379Z,43.70
2019-03-04T07:14:43.696Z,43.80
2019-03-04T07:17:14.011Z,44.10
2019-03-04T07:19:44.476Z,47.00
2019-03-04T07:22:14.800Z,52.10
2019-03-04T07:24:45.266Z,57.20
2019-03-04T07:27:15.639Z,61.40
2019-03-04T07:29:46.034Z,60.40
2019-03-04T07:32:35.413Z,60.90
2019-03-04T07:35:07.399Z,60.50
2019-03-04T07:37:37.756Z,60.90
2019-03-04T07:40:09.716Z,61.40
2019-03-04T07:42:40.189Z,61.30
2019-03-04T07:45:13.320Z,60.40
2019-03-04T07:47:43.696Z,60.30
2019-03-04T07:50:14.088Z,60.00
2019-03-04T07:52:44.501Z,60.00
2019-03-04T07:55:14.934Z,60.10
2019-03-04T07:57:45.266Z,60.20
2019-03-04T08:00:15.570Z,60.30
2019-03-04T08:02:46.127Z,59.90
2019-03-04T08:05:18.287Z,59.70
2019-03-04T08:07:51.146Z,59.80
2019-03-04T08:10:53.833Z,59.60
2019-03-04T08:13:43.011Z,59.40
2019-03-04T08:16:13.549Z,59.50
2019-03-04T08:18:43.980Z,59.50
2019-03-04T08:21:14.585Z,59.40
2019-03-04T08:23:44.904Z,59.10
2019-03-04T08:26:15.461Z,58.80
2019-03-04T08:28:46.306Z,58.60
2019-03-04T08:31:16.611Z,58.00
2019-03-04T08:33:47.041Z,58.10
2019-03-04T08:36:17.422Z,58.10
2019-03-04T08:38:47.840Z,57.90
2019-03-04T08:41:19.337Z,57.80
2019-03-04T08:43:50.107Z,57.20
2019-03-04T08:46:20.491Z,56.40
2019-03-04T08:48:51.336Z,56.00
2019-03-04T08:51:21.773Z,55.20
2019-03-04T08:53:52.600Z,54.10
2019-03-04T08:56:23.114Z,53.70
2019-03-04T08:58:53.473Z,53.10
2019-03-04T09:01:23.819Z,53.10
2019-03-04T09:03:54.145Z,52.70
2019-03-04T09:06:24.448Z,52.70
2019-03-04T09:08:54.802Z,52.60
2019-03-04T09:11:28.202Z,52.60
2019-03-04T09:13:58.552Z,52.60
2019-03-04T09:16:28.880Z,52.60
2019-03-04T09:18:59.317Z,52.60
2019-03-04T09:21:29.617Z,52.90
2019-03-04T09:23:59.958Z,53.20
2019-03-04T09:26:31.330Z,53.80
2019-03-04T09:29:02.283Z,54.00
2019-03-04T09:31:32.590Z,54.50
2019-03-04T09:34:02.921Z,55.10
2019-03-04T09:36:33.973Z,55.70
2019-03-04T09:39:07.186Z,56.50
2019-03-04T09:41:39.426Z,57.70
2019-03-04T09:44:12.982Z,58.50
2019-03-04T09:46:43.266Z,59.10
2019-03-04T09:49:13.698Z,60.00
2019-03-04T09:51:43.993Z,59.80
2019-03-04T09:54:14.318Z,59.90
2019-03-04T09:56:44.646Z,60.00
2019-03-04T09:59:15.001Z,60.30
2019-03-04T10:01:52.006Z,60.50
2019-03-04T10:05:06.473Z,60.70
2019-03-04T10:08:05.027Z,61.30
2019-03-04T10:10:51.645Z,61.50
2019-03-04T10:13:54.330Z,61.90
2019-03-04T10:16:57.634Z,62.40
2019-03-04T10:20:08.608Z,62.20
2019-03-04T10:23:03.398Z,62.40
2019-03-04T10:26:22.275Z,62.50
2019-03-04T10:29:17.934Z,62.50
2019-03-04T10:32:47.566Z,62.50
2019-03-04T10:35:56.127Z,62.30
2019-03-04T10:39:07.201Z,62.30
2019-03-04T10:42:15.950Z,62.00
2019-03-04T10:45:11.819Z,61.80
2019-03-04T10:47:42.187Z,61.60
2019-03-04T10:50:12.523Z,61.40
2019-03-04T10:52:42.898Z,60.90
2019-03-04T10:55:13.561Z,60.30
2019-03-04T10:57:43.865Z,60.30
2019-03-04T11:00:18.546Z,58.80
2019-03-04T11:02:49.017Z,58.40
2019-03-04T11:05:19.401Z,58.20
2019-03-04T11:07:49.796Z,57.70
2019-03-04T11:10:20.201Z,57.40
2019-03-04T11:12:50.713Z,57.50
2019-03-04T11:15:22.937Z,57.30
2019-03-04T11:17:54.438Z,57.40
2019-03-04T11:20:25.072Z,57.00
2019-03-04T11:22:55.674Z,56.50
2019-03-04T11:25:26.001Z,56.00
2019-03-04T11:27:56.340Z,56.30
2019-03-04T11:30:29.480Z,56.30
2019-03-04T11:33:00.281Z,56.50
2019-03-04T11:35:31.579Z,56.20
2019-03-04T11:38:34.142Z,56.40
2019-03-04T11:41:08.053Z,56.10
2019-03-04T11:43:40.956Z,55.70
2019-03-04T11:46:11.529Z,55.70
2019-03-04T11:48:41.895Z,55.60
2019-03-04T11:51:12.563Z,55.90
2019-03-04T11:53:43.189Z,56.00
2019-03-04T11:56:13.882Z,56.50
2019-03-04T11:58:44.269Z,56.80
2019-03-04T12:01:19.716Z,54.30
2019-03-04T12:03:50.065Z,54.60
2019-03-04T12:06:20.449Z,52.60
2019-03-04T12:08:50.826Z,52.20
2019-03-04T12:11:22.254Z,52.00
2019-03-04T12:13:52.575Z,50.60
2019-03-04T12:16:23.919Z,48.50
2019-03-04T12:18:54.655Z,46.40
2019-03-04T12:21:24.990Z,45.50
2019-03-04T12:23:55.271Z,44.70
2019-03-04T12:26:25.597Z,42.20
2019-03-04T12:28:55.879Z,42.50
2019-03-04T12:31:28.556Z,41.60
2019-03-04T12:33:58.926Z,41.70
2019-03-04T12:36:29.245Z,40.70
2019-03-04T12:38:59.621Z,41.20
2019-03-04T12:41:29.920Z,41.20
2019-03-04T12:44:00.256Z,40.70
2019-03-04T12:46:30.585Z,40.20
2019-03-04T12:49:00.926Z,38.80
2019-03-04T12:51:31.318Z,38.80
2019-03-04T12:54:01.608Z,38.20
2019-03-04T12:56:33.001Z,37.50
2019-03-04T12:59:03.332Z,37.70
2019-03-04T13:01:34.624Z,36.70
2019-03-04T13:04:04.923Z,37.20
2019-03-04T13:06:35.235Z,36.50
2019-03-04T13:09:24.625Z,36.60
2019-03-04T13:11:55.957Z,36.50
2019-03-04T13:14:26.356Z,35.90
2019-03-04T13:16:56.722Z,35.60
2019-03-04T13:19:27.036Z,35.20
2019-03-04T13:21:57.362Z,33.10
2019-03-04T13:24:27.658Z,32.80
2019-03-04T13:26:57.998Z,33.30
2019-03-04T13:29:28.357Z,32.70
2019-03-04T13:31:58.627Z,32.60
2019-03-04T13:34:28.935Z,34.20
2019-03-04T13:36:59.269Z,35.00
2019-03-04T13:39:29.558Z,35.00
2019-03-04T13:41:59.909Z,35.30
2019-03-04T13:44:30.261Z,36.10
2019-03-04T13:47:00.580Z,36.50
2019-03-04T13:49:32.145Z,39.50
2019-03-04T13:52:13.930Z,39.70
2019-03-04T13:54:44.296Z,38.10
2019-03-04T13:57:14.654Z,37.60
2019-03-04T13:59:44.984Z,36.60
2019-03-04T14:02:15.342Z,37.40
2019-03-04T14:04:45.662Z,37.50
2019-03-04T14:07:16.061Z,38.10
2019-03-04T14:09:46.518Z,38.80
2019-03-04T14:12:24.653Z,39.20
2019-03-04T14:14:55.065Z,42.60
2019-03-04T14:17:25.411Z,50.90
2019-03-04T14:19:55.719Z,59.90
2019-03-04T14:22:26.108Z,66.50
2019-03-04T14:24:56.410Z,71.30
2019-03-04T14:27:26.770Z,71.70
2019-03-04T14:29:57.076Z,69.70
2019-03-04T14:32:27.587Z,67.70
2019-03-04T14:34:57.931Z,67.10
2019-03-04T14:37:28.256Z,64.70
2019-03-04T14:39:58.559Z,66.40
2019-03-04T14:42:28.880Z,63.80
2019-03-04T14:45:00.363Z,61.30
2019-03-04T14:47:31.666Z,60.80
2019-03-04T14:50:21.056Z,60.80
2019-03-04T14:52:51.483Z,60.00
2019-03-04T14:55:40.844Z,63.80
2019-03-04T14:58:12.349Z,67.80
2019-03-04T15:00:43.868Z,77.90
2019-03-04T15:03:20.958Z,85.10
2019-03-04T15:05:46.366Z,91.30
2019-03-04T15:08:16.709Z,92.20
2019-03-04T15:10:46.998Z,94.70
2019-03-04T15:13:17.321Z,95.00
2019-03-04T15:15:47.590Z,95.90
2019-03-04T15:18:18.277Z,96.30
2019-03-04T15:20:48.593Z,96.70
2019-03-04T15:23:19.136Z,97.00
2019-03-04T15:25:49.421Z,97.20
2019-03-04T15:28:20.957Z,98.20
2019-03-04T15:30:53.574Z,99.30
2019-03-04T15:33:25.725Z,98.40
2019-03-04T15:35:56.103Z,98.60
2019-03-04T15:38:26.416Z,98.50
2019-03-04T15:40:56.712Z,98.70
2019-03-04T15:43:27.027Z,98.60
2019-03-04T15:45:57.562Z,98.40
2019-03-04T15:48:28.732Z,97.70
2019-03-04T15:50:59.217Z,97.50
2019-03-04T15:53:29.536Z,97.50
2019-03-04T15:55:59.825Z,96.80
2019-03-04T15:58:42.428Z,97.10
2019-03-04T16:01:13.347Z,96.10
2019-03-04T16:03:43.655Z,96.00
2019-03-04T16:06:13.974Z,96.00
2019-03-04T16:08:44.377Z,95.70
2019-03-04T16:11:14.704Z,96.10
2019-03-04T16:13:52.701Z,96.20
2019-03-04T16:16:17.434Z,96.80
2019-03-04T16:18:47.744Z,96.70
2019-03-04T16:21:18.033Z,97.10
2019-03-04T16:23:48.346Z,97.40
2019-03-04T16:26:18.645Z,97.40
2019-03-04T16:28:49.247Z,97.60
2019-03-04T16:31:19.560Z,98.20
2019-03-04T16:33:49.881Z,98.40
2019-03-04T16:36:20.181Z,98.40
2019-03-04T16:38:50.501Z,98.30
2019-03-04T16:41:20.791Z,98.10
2019-03-04T16:43:51.369Z,98.20
2019-03-04T16:46:21.782Z,97.70
2019-03-04T16:48:53.113Z,97.40
2019-03-04T16:51:42.483Z,97.30
2019-03-04T16:54:12.784Z,96.80
2019-03-04T16:56:43.079Z,96.20
2019-03-04T16:59:13.429Z,96.20
2019-03-04T17:01:43.728Z,95.90
2019-03-04T17:04:14.057Z,95.50
2019-03-04T17:06:44.553Z,96.00
2019-03-04T17:09:21.312Z,96.00
2019-03-04T17:11:51.694Z,95.60
2019-03-04T17:14:22.113Z,95.40
2019-03-04T17:16:52.672Z,95.20
2019-03-04T17:19:23.073Z,95.60
2019-03-04T17:21:54.583Z,95.20
2019-03-04T17:24:24.974Z,94.60
2019-03-04T17:26:55.696Z,94.80
2019-03-04T17:29:26.043Z,94.40
2019-03-04T17:31:56.579Z,95.00
2019-03-04T17:34:26.911Z,94.90
2019-03-04T17:36:57.293Z,94.50
2019-03-04T17:39:27.638Z,95.20
2019-03-04T17:41:58.219Z,94.60
2019-03-04T17:44:28.680Z,95.20
2019-03-04T17:46:59.346Z,94.70
2019-03-04T17:49:29.748Z,94.40
2019-03-04T17:52:00.095Z,94.50
2019-03-04T17:54:31.490Z,94.50
2019-03-04T17:57:01.861Z,95.00
2019-03-04T17:59:33.429Z,94.00
2019-03-04T18:02:03.818Z,94.30
2019-03-04T18:04:34.169Z,94.00
2019-03-04T18:07:05.591Z,93.80
2019-03-04T18:09:35.966Z,93.90
2019-03-04T18:12:06.268Z,93.80
2019-03-04T18:14:37.380Z,93.40
2019-03-04T18:17:07.847Z,92.90
2019-03-04T18:19:38.238Z,93.80
2019-03-04T18:22:08.578Z,94.10
2019-03-04T18:24:39.004Z,93.90
2019-03-04T18:27:16.839Z,94.50
2019-03-04T18:30:27.201Z,94.50
2019-03-04T18:33:40.494Z,94.90
2019-03-04T18:36:39.505Z,94.70
2019-03-04T18:39:30.415Z,96.20
2019-03-04T18:42:43.598Z,97.40
2019-03-04T18:45:32.557Z,97.70
2019-03-04T18:48:18.823Z,98.00
2019-03-04T18:50:49.395Z,98.10
2019-03-04T18:53:19.689Z,97.50
2019-03-04T18:55:50.055Z,97.30
2019-03-04T18:58:20.939Z,96.80
2019-03-04T19:00:51.740Z,96.50
2019-03-04T19:03:22.219Z,97.00
2019-03-04T19:06:04.767Z,97.00
2019-03-04T19:08:35.855Z,97.10
2019-03-04T19:11:06.196Z,96.80
2019-03-04T19:13:36.600Z,97.50
2019-03-04T19:16:08.742Z,96.80
2019-03-04T19:18:40.591Z,96.50
2019-03-04T19:21:11.007Z,96.80
2019-03-04T19:23:41.459Z,96.50
2019-03-04T19:26:12.454Z,96.60
2019-03-04T19:28:43.020Z,96.30
2019-03-04T19:31:13.428Z,96.50
2019-03-04T19:33:45.319Z,96.70
2019-03-04T19:36:15.742Z,96.40
2019-03-04T19:38:46.238Z,95.90
2019-03-04T19:41:16.614Z,96.10
2019-03-04T19:43:46.928Z,96.70
2019-03-04T19:46:17.765Z,96.40
2019-03-04T19:48:49.845Z,96.70
2019-03-04T19:51:21.088Z,96.30
2019-03-04T19:53:52.486Z,96.60
2019-03-04T19:56:22.992Z,96.10
2019-03-04T19:58:53.439Z,96.10
2019-03-04T20:01:23.850Z,96.10
2019-03-04T20:03:54.491Z,96.30
2019-03-04T20:06:24.860Z,96.10
2019-03-04T20:08:55.750Z,96.10
2019-03-04T20:11:26.307Z,95.70
2019-03-04T20:13:56.645Z,96.10
2019-03-04T20:16:27.780Z,96.30
2019-03-04T20:18:59.406Z,96.70
2019-03-04T20:21:30.041Z,96.20
2019-03-04T20:24:03.446Z,96.10
2019-03-04T20:26:34.547Z,95.70
2019-03-04T20:29:05.010Z,95.40
2019-03-04T20:31:35.463Z,95.40
2019-03-04T20:34:06.185Z,95.10
2019-03-04T20:36:36.641Z,95.10
2019-03-04T20:39:09.229Z,95.60
2019-03-04T20:41:39.722Z,95.10
2019-03-04T20:44:10.179Z,94.60
2019-03-04T20:46:40.459Z,94.50
2019-03-04T20:49:11.733Z,94.70
2019-03-04T20:51:42.113Z,93.90
2019-03-04T20:54:12.608Z,94.00
2019-03-04T20:56:42.952Z,92.60
2019-03-04T20:59:33.462Z,93.50
2019-03-04T21:02:04.003Z,93.40
2019-03-04T21:04:34.430Z,93.20
2019-03-04T21:07:04.877Z,92.50
2019-03-04T21:09:35.245Z,92.40
2019-03-04T21:12:05.881Z,92.20
2019-03-04T21:14:36.685Z,91.40
2019-03-04T21:17:07.090Z,91.20
2019-03-04T21:19:37.648Z,90.90
2019-03-04T21:22:08.107Z,91.90
2019-03-04T21:24:38.487Z,90.60
2019-03-04T21:27:08.811Z,90.60
2019-03-04T21:30:05.890Z,90.60
2019-03-04T21:32:48.721Z,90.30
2019-03-04T21:35:51.890Z,90.70
2019-03-04T21:38:29.303Z,90.60
2019-03-04T21:41:12.448Z,90.00
2019-03-04T21:43:51.784Z,90.00
2019-03-04T21:47:06.327Z,90.00
2019-03-04T21:49:40.273Z,90.30
2019-03-04T21:52:34.950Z,82.10
2019-03-04T21:55:09.403Z,86.20
2019-03-04T21:57:44.679Z,86.20
2019-03-04T22:00:21.704Z,82.90
2019-03-04T22:03:05.275Z,80.50
2019-03-04T22:05:36.303Z,80.40
2019-03-04T22:08:19.059Z,81.00
2019-03-04T22:10:49.563Z,81.90
2019-03-04T22:13:19.992Z,82.80
2019-03-04T22:15:50.404Z,78.10
2019-03-04T22:18:20.742Z,80.20
2019-03-04T22:20:51.049Z,81.30
2019-03-04T22:23:23.028Z,81.50
2019-03-04T22:26:01.595Z,81.40
2019-03-04T22:28:25.487Z,81.60
2019-03-04T22:30:56.028Z,80.50
2019-03-04T22:33:26.411Z,81.00
2019-03-04T22:35:56.874Z,81.50
2019-03-04T22:38:27.713Z,80.00
2019-03-04T22:40:58.128Z,81.20
2019-03-04T22:43:28.519Z,78.10
2019-03-04T22:45:58.917Z,78.80
2019-03-04T22:48:29.253Z,72.50
2019-03-04T22:50:59.566Z,73.70
2019-03-04T22:53:29.901Z,72.90
2019-03-04T22:56:00.180Z,71.70
2019-03-04T22:58:33.294Z,74.00
2019-03-04T23:01:56.620Z,73.70
2019-03-04T23:04:56.308Z,73.70
2019-03-04T23:07:32.699Z,75.30
2019-03-04T23:10:31.573Z,74.60
2019-03-04T23:13:49.244Z,73.70
2019-03-04T23:16:23.002Z,77.60
2019-03-04T23:18:53.505Z,76.10
2019-03-04T23:21:23.873Z,76.50
2019-03-04T23:23:54.506Z,76.20
2019-03-04T23:26:24.943Z,73.60
2019-03-04T23:28:55.600Z,75.20
2019-03-04T23:31:25.954Z,76.60
2019-03-04T23:33:58.223Z,78.00
2019-03-04T23:36:28.614Z,78.40
2019-03-04T23:38:58.996Z,78.80
2019-03-04T23:41:29.410Z,80.30
2019-03-04T23:43:59.974Z,81.50
2019-03-04T23:46:38.156Z,81.00
2019-03-04T23:49:08.580Z,82.70
2019-03-04T23:51:38.980Z,83.20
2019-03-04T23:54:09.497Z,83.20
2019-03-04T23:56:39.893Z,83.30
2019-03-04T23:59:10.526Z,83.90
